createdAt,value
2022-09-12T00:01:24.144Z,13.08
2022-09-12T00:03:58.227Z,13.08
2022-09-12T00:06:30.809Z,13.07
2022-09-12T00:09:02.965Z,13.05
2022-09-12T00:11:31.145Z,13.09
2022-09-12T00:14:00.992Z,13.10
2022-09-12T00:16:32.171Z,13.13
2022-09-12T00:19:00.944Z,13.16
2022-09-12T00:21:28.853Z,13.16
2022-09-12T00:23:56.215Z,13.20
2022-09-12T00:26:24.173Z,13.22
2022-09-12T00:28:52.150Z,13.21
2022-09-12T00:31:24.139Z,13.20
2022-09-12T00:33:53.458Z,13.19
2022-09-12T00:36:24.048Z,13.21
2022-09-12T00:38:51.547Z,13.21
2022-09-12T00:41:26.732Z,13.21
2022-09-12T00:44:04.451Z,13.18
2022-09-12T00:46:45.613Z,13.12
2022-09-12T00:49:24.681Z,13.12
2022-09-12T00:52:18.058Z,13.12
2022-09-12T00:55:03.829Z,13.12
2022-09-12T00:57:50.103Z,13.10
2022-09-12T01:00:21.509Z,13.07
2022-09-12T01:02:55.050Z,13.08
2022-09-12T01:05:24.959Z,13.05
2022-09-12T01:07:54.754Z,13.03
2022-09-12T01:10:23.875Z,13.02
2022-09-12T01:12:52.032Z,13.03
2022-09-12T01:15:19.795Z,13.04
2022-09-12T01:18:13.989Z,13.01
2022-09-12T01:21:08.715Z,13.03
2022-09-12T01:23:44.920Z,13.01
2022-09-12T01:27:08.504Z,13.00
2022-09-12T01:30:33.165Z,13.00
2022-09-12T01:33:31.931Z,13.00
2022-09-12T01:36:34.486Z,12.95
2022-09-12T01:39:32.398Z,12.95
2022-09-12T01:42:17.733Z,12.94
2022-09-12T01:44:53.378Z,12.93
2022-09-12T01:47:48.103Z,12.91
2022-09-12T01:50:25.145Z,12.88
2022-09-12T01:53:04.975Z,12.85
2022-09-12T01:55:41.546Z,12.82
2022-09-12T01:58:21.070Z,12.80
2022-09-12T02:01:03.519Z,12.78
2022-09-12T02:03:52.087Z,12.78
2022-09-12T02:06:29.288Z,12.79
2022-09-12T02:09:36.772Z,12.76
2022-09-12T02:12:08.735Z,12.78
2022-09-12T02:14:51.226Z,12.77
2022-09-12T02:17:26.220Z,12.76
2022-09-12T02:20:46.776Z,12.75
2022-09-12T02:23:23.298Z,12.72
2022-09-12T02:25:57.626Z,12.70
2022-09-12T02:28:33.010Z,12.66
2022-09-12T02:31:23.280Z,12.64
2022-09-12T02:34:15.830Z,12.61
2022-09-12T02:37:01.303Z,12.60
2022-09-12T02:39:28.927Z,12.55
2022-09-12T02:42:00.301Z,12.49
2022-09-12T02:44:33.588Z,12.47
2022-09-12T02:47:14.375Z,12.46
2022-09-12T02:49:41.480Z,12.48
2022-09-12T02:52:09.010Z,12.48
2022-09-12T02:54:38.103Z,12.48
2022-09-12T02:57:23.398Z,12.49
2022-09-12T02:59:59.179Z,12.48
2022-09-12T03:02:49.773Z,12.48
2022-09-12T03:05:56.117Z,12.47
2022-09-12T03:09:05.949Z,12.44
2022-09-12T03:12:08.420Z,12.40
2022-09-12T03:14:41.213Z,12.40
2022-09-12T03:17:44.013Z,12.37
2022-09-12T03:20:30.492Z,12.36
2022-09-12T03:23:15.057Z,12.36
2022-09-12T03:25:57.294Z,12.32
2022-09-12T03:28:24.875Z,12.31
2022-09-12T03:30:54.310Z,12.29
2022-09-12T03:33:25.020Z,12.27
2022-09-12T03:35:54.903Z,12.25
2022-09-12T03:38:21.900Z,12.24
2022-09-12T03:40:54.044Z,12.21
2022-09-12T03:43:23.055Z,12.21
2022-09-12T03:45:53.459Z,12.21
2022-09-12T03:48:20.759Z,12.20
2022-09-12T03:50:48.445Z,12.15
2022-09-12T03:53:17.345Z,12.11
2022-09-12T03:55:45.038Z,12.16
2022-09-12T03:58:12.766Z,12.18
2022-09-12T04:00:40.240Z,12.14
2022-09-12T04:03:07.349Z,12.14
2022-09-12T04:05:35.982Z,12.10
2022-09-12T04:08:03.564Z,12.05
2022-09-12T04:10:32.520Z,12.03
2022-09-12T04:13:00.138Z,12.03
2022-09-12T04:15:27.145Z,12.01
2022-09-12T04:17:54.490Z,12.05
2022-09-12T04:20:21.756Z,12.09
2022-09-12T04:22:48.877Z,12.09
2022-09-12T04:25:17.220Z,12.08
2022-09-12T04:27:44.664Z,12.09
2022-09-12T04:30:12.354Z,12.09
2022-09-12T04:32:40.866Z,12.07
2022-09-12T04:35:08.551Z,12.05
2022-09-12T04:37:36.058Z,12.04
2022-09-12T04:40:03.373Z,12.04
2022-09-12T04:42:30.807Z,12.07
2022-09-12T04:44:58.247Z,12.08
2022-09-12T04:47:25.286Z,12.10
2022-09-12T04:49:52.705Z,12.11
2022-09-12T04:52:20.133Z,12.08
2022-09-12T04:54:47.205Z,12.11
2022-09-12T04:57:14.729Z,12.12
2022-09-12T04:59:42.700Z,12.14
2022-09-12T05:02:10.117Z,12.17
2022-09-12T05:04:37.602Z,12.18
2022-09-12T05:07:05.769Z,12.19
2022-09-12T05:09:32.877Z,12.20
2022-09-12T05:12:05.321Z,12.19
2022-09-12T05:14:34.601Z,12.24
2022-09-12T05:17:04.569Z,12.24
2022-09-12T05:19:32.912Z,12.29
2022-09-12T05:22:00.278Z,12.32
2022-09-12T05:24:28.772Z,12.40
2022-09-12T05:26:55.910Z,12.40
2022-09-12T05:29:25.020Z,12.42
2022-09-12T05:31:52.954Z,12.46
2022-09-12T05:34:20.940Z,12.46
2022-09-12T05:36:48.353Z,12.49
2022-09-12T05:39:16.075Z,12.62
2022-09-12T05:41:43.106Z,12.62
2022-09-12T05:44:14.239Z,12.73
2022-09-12T05:46:44.213Z,12.77
2022-09-12T05:49:14.347Z,12.87
2022-09-12T05:51:45.392Z,12.92
2022-09-12T05:54:18.078Z,12.99
2022-09-12T05:56:45.685Z,13.06
2022-09-12T05:59:20.076Z,13.16
2022-09-12T06:01:48.845Z,13.09
2022-09-12T06:04:16.626Z,13.14
2022-09-12T06:06:46.303Z,13.22
2022-09-12T06:09:17.894Z,13.28
2022-09-12T06:11:46.488Z,13.27
2022-09-12T06:14:17.782Z,13.27
2022-09-12T06:16:47.064Z,13.29
2022-09-12T06:19:20.072Z,13.30
2022-09-12T06:21:50.014Z,13.31
2022-09-12T06:24:19.373Z,13.33
2022-09-12T06:26:48.371Z,13.30
2022-09-12T06:29:16.616Z,13.20
2022-09-12T06:31:44.782Z,13.24
2022-09-12T06:34:16.097Z,13.26
2022-09-12T06:36:49.015Z,13.34
2022-09-12T06:39:19.983Z,13.44
2022-09-12T06:41:49.914Z,13.55
2022-09-12T06:44:21.626Z,13.70
2022-09-12T06:46:49.889Z,13.81
2022-09-12T06:49:17.737Z,14.00
2022-09-12T06:51:45.102Z,14.19
2022-09-12T06:54:15.482Z,14.37
2022-09-12T06:56:42.989Z,14.51
2022-09-12T06:59:10.450Z,14.68
2022-09-12T07:01:38.214Z,14.83
2022-09-12T07:04:05.740Z,14.98
2022-09-12T07:06:40.514Z,15.26
2022-09-12T07:09:12.835Z,15.54
2022-09-12T07:11:43.079Z,15.64
2022-09-12T07:14:14.436Z,15.60
2022-09-12T07:16:42.117Z,15.68
2022-09-12T07:19:10.238Z,15.51
2022-09-12T07:21:40.232Z,15.41
2022-09-12T07:24:10.671Z,15.68
2022-09-12T07:26:40.638Z,15.63
2022-09-12T07:29:35.338Z,15.91
2022-09-12T07:32:02.290Z,15.88
2022-09-12T07:34:29.735Z,15.72
2022-09-12T07:36:56.914Z,15.44
2022-09-12T07:39:24.414Z,15.56
2022-09-12T07:41:51.552Z,15.74
2022-09-12T07:44:18.636Z,15.76
2022-09-12T07:46:46.283Z,16.04
2022-09-12T07:49:13.493Z,15.93
2022-09-12T07:51:41.123Z,15.76
2022-09-12T07:54:09.431Z,15.91
2022-09-12T07:56:39.461Z,15.81
2022-09-12T07:59:08.507Z,15.98
2022-09-12T08:01:36.386Z,16.25
2022-09-12T08:04:05.103Z,16.00
2022-09-12T08:06:35.918Z,15.93
2022-09-12T08:09:05.422Z,16.21
2022-09-12T08:11:33.784Z,16.22
2022-09-12T08:14:02.906Z,16.31
2022-09-12T08:16:33.015Z,16.28
2022-09-12T08:19:02.733Z,16.06
2022-09-12T08:21:32.585Z,16.02
2022-09-12T08:24:04.343Z,15.87
2022-09-12T08:26:34.841Z,15.95
2022-09-12T08:29:02.425Z,15.91
2022-09-12T08:31:31.878Z,16.28
2022-09-12T08:33:59.177Z,16.38
2022-09-12T08:36:29.563Z,16.42
2022-09-12T08:39:02.679Z,16.53
2022-09-12T08:41:46.517Z,16.82
2022-09-12T08:44:47.459Z,16.81
2022-09-12T08:47:28.869Z,17.05
2022-09-12T08:50:15.607Z,16.88
2022-09-12T08:53:12.626Z,16.89
2022-09-12T08:55:56.014Z,17.36
2022-09-12T08:58:27.127Z,17.32
2022-09-12T09:01:14.058Z,17.57
2022-09-12T09:03:56.575Z,17.80
2022-09-12T09:06:34.046Z,17.98
2022-09-12T09:09:29.423Z,17.92
2022-09-12T09:12:21.938Z,18.05
2022-09-12T09:15:38.402Z,18.47
2022-09-12T09:18:18.711Z,18.83
2022-09-12T09:21:03.563Z,19.16
2022-09-12T09:23:40.997Z,19.42
2022-09-12T09:26:27.292Z,19.46
2022-09-12T09:29:30.391Z,19.83
2022-09-12T09:32:03.482Z,19.67
2022-09-12T09:34:32.199Z,19.95
2022-09-12T09:37:34.737Z,19.97
2022-09-12T09:40:27.449Z,19.96
2022-09-12T09:43:23.994Z,20.09
2022-09-12T09:45:53.213Z,19.99
2022-09-12T09:48:30.942Z,19.43
2022-09-12T09:51:02.434Z,18.99
2022-09-12T09:53:40.133Z,19.17
2022-09-12T09:56:39.978Z,19.40
2022-09-12T09:59:25.818Z,19.71
2022-09-12T10:02:03.795Z,19.90
2022-09-12T10:04:41.493Z,19.93
2022-09-12T10:07:21.703Z,20.14
2022-09-12T10:10:17.673Z,20.22
2022-09-12T10:12:45.781Z,20.28
2022-09-12T10:15:26.127Z,20.15
2022-09-12T10:17:55.639Z,20.09
2022-09-12T10:20:46.561Z,20.08
2022-09-12T10:23:18.869Z,20.41
2022-09-12T10:25:53.661Z,20.49
2022-09-12T10:28:40.325Z,20.63
2022-09-12T10:31:15.621Z,20.88
2022-09-12T10:33:52.855Z,21.10
2022-09-12T10:36:21.823Z,20.78
2022-09-12T10:38:58.020Z,20.66
2022-09-12T10:41:26.115Z,20.66
2022-09-12T10:43:53.207Z,20.59
2022-09-12T10:46:23.911Z,21.02
2022-09-12T10:49:13.899Z,21.16
2022-09-12T10:51:40.923Z,21.21
2022-09-12T10:54:13.148Z,21.51
2022-09-12T10:57:11.891Z,21.77
2022-09-12T10:59:58.592Z,22.08
2022-09-12T11:02:49.073Z,22.20
2022-09-12T11:05:58.113Z,22.34
2022-09-12T11:09:05.517Z,22.43
2022-09-12T11:12:02.174Z,22.43
2022-09-12T11:15:17.268Z,22.47
2022-09-12T11:18:24.403Z,22.49
2022-09-12T11:21:19.290Z,22.62
2022-09-12T11:24:23.129Z,22.81
2022-09-12T11:27:12.050Z,22.89
2022-09-12T11:29:59.862Z,22.72
2022-09-12T11:33:11.782Z,22.84
2022-09-12T11:35:55.267Z,23.03
2022-09-12T11:38:55.639Z,22.89
2022-09-12T11:41:39.383Z,23.22
2022-09-12T11:44:19.251Z,23.37
2022-09-12T11:46:51.198Z,23.62
2022-09-12T11:49:40.278Z,23.85
2022-09-12T11:52:22.358Z,23.87
2022-09-12T11:55:06.051Z,23.73
2022-09-12T11:57:52.701Z,23.98
2022-09-12T12:00:22.650Z,24.19
2022-09-12T12:03:11.731Z,24.24
2022-09-12T12:06:04.277Z,24.21
2022-09-12T12:08:39.755Z,23.96
2022-09-12T12:11:09.293Z,23.91
2022-09-12T12:13:58.915Z,23.80
2022-09-12T12:16:41.084Z,23.89
2022-09-12T12:19:14.377Z,24.01
2022-09-12T12:21:48.211Z,24.38
2022-09-12T12:24:22.453Z,24.38
2022-09-12T12:27:22.483Z,24.44
2022-09-12T12:29:50.059Z,24.70
2022-09-12T12:32:17.633Z,24.69
2022-09-12T12:34:47.065Z,24.72
2022-09-12T12:37:23.318Z,24.93
2022-09-12T12:40:07.488Z,24.85
2022-09-12T12:42:35.077Z,24.74
2022-09-12T12:45:17.197Z,24.78
2022-09-12T12:47:53.538Z,24.60
2022-09-12T12:50:26.438Z,24.73
2022-09-12T12:53:07.838Z,25.05
2022-09-12T12:55:43.927Z,24.90
2022-09-12T12:58:39.593Z,24.90
2022-09-12T13:01:23.615Z,24.64
2022-09-12T13:04:04.639Z,24.90
2022-09-12T13:06:56.949Z,25.24
2022-09-12T13:09:36.839Z,25.45
2022-09-12T13:12:19.923Z,25.34
2022-09-12T13:14:53.245Z,25.69
2022-09-12T13:17:41.321Z,25.41
2022-09-12T13:20:29.443Z,24.94
2022-09-12T13:22:58.034Z,24.50
2022-09-12T13:25:32.211Z,24.20
2022-09-12T13:28:11.882Z,24.15
2022-09-12T13:30:45.196Z,24.52
2022-09-12T13:33:33.186Z,24.73
2022-09-12T13:36:25.351Z,25.20
2022-09-12T13:39:28.080Z,25.30
2022-09-12T13:42:23.522Z,25.21
2022-09-12T13:44:58.748Z,25.28
2022-09-12T13:47:35.799Z,25.48
2022-09-12T13:50:08.875Z,25.84
2022-09-12T13:52:39.090Z,26.00
2022-09-12T13:55:31.380Z,25.52
2022-09-12T13:58:24.155Z,24.93
2022-09-12T14:01:09.795Z,25.27
2022-09-12T14:04:08.719Z,24.81
2022-09-12T14:06:47.665Z,25.47
2022-09-12T14:09:25.350Z,25.01
2022-09-12T14:11:53.836Z,25.43
2022-09-12T14:14:36.514Z,25.30
2022-09-12T14:17:24.045Z,24.93
2022-09-12T14:19:52.807Z,24.84
2022-09-12T14:22:20.287Z,24.09
2022-09-12T14:24:51.812Z,23.98
2022-09-12T14:27:28.365Z,23.83
2022-09-12T14:30:19.976Z,23.53
2022-09-12T14:33:12.323Z,23.31
2022-09-12T14:36:15.773Z,23.11
2022-09-12T14:38:48.794Z,22.85
2022-09-12T14:41:28.902Z,22.84
2022-09-12T14:44:02.780Z,22.43
2022-09-12T14:46:38.809Z,22.44
2022-09-12T14:49:21.300Z,22.27
2022-09-12T14:51:55.906Z,22.09
2022-09-12T14:54:36.295Z,21.92
2022-09-12T14:57:39.343Z,21.79
2022-09-12T15:00:12.479Z,21.73
2022-09-12T15:02:44.856Z,21.68
2022-09-12T15:05:12.273Z,21.65
2022-09-12T15:07:56.094Z,21.48
2022-09-12T15:10:37.632Z,21.23
2022-09-12T15:13:16.825Z,21.10
2022-09-12T15:15:52.363Z,21.24
2022-09-12T15:18:21.248Z,21.34
2022-09-12T15:20:53.944Z,21.19
2022-09-12T15:23:42.772Z,21.06
2022-09-12T15:26:19.861Z,21.19
2022-09-12T15:28:47.543Z,21.12
2022-09-12T15:31:31.340Z,21.07
2022-09-12T15:34:02.324Z,21.15
2022-09-12T15:36:30.741Z,21.04
2022-09-12T15:38:58.577Z,21.01
2022-09-12T15:41:36.896Z,20.93
2022-09-12T15:44:12.188Z,21.11
2022-09-12T15:46:40.085Z,21.01
2022-09-12T15:49:07.514Z,21.10
2022-09-12T15:51:34.598Z,21.18
2022-09-12T15:54:04.383Z,21.01
2022-09-12T15:56:31.627Z,21.14
2022-09-12T15:58:59.999Z,21.27
2022-09-12T16:01:29.867Z,21.06
2022-09-12T16:03:57.833Z,21.22
2022-09-12T16:06:25.410Z,21.15
2022-09-12T16:08:52.866Z,21.01
2022-09-12T16:11:27.247Z,20.98
2022-09-12T16:13:56.830Z,20.98
2022-09-12T16:16:24.237Z,20.98
2022-09-12T16:18:51.742Z,21.01
2022-09-12T16:21:18.932Z,21.01
2022-09-12T16:23:48.044Z,20.99
2022-09-12T16:26:16.819Z,20.96
2022-09-12T16:28:44.602Z,20.93
2022-09-12T16:31:15.882Z,20.86
2022-09-12T16:33:43.054Z,20.81
2022-09-12T16:36:14.927Z,20.76
2022-09-12T16:38:47.477Z,20.69
2022-09-12T16:41:17.118Z,20.63
2022-09-12T16:43:46.226Z,20.57
2022-09-12T16:46:20.094Z,20.49
2022-09-12T16:48:54.367Z,20.45
2022-09-12T16:51:30.605Z,20.40
2022-09-12T16:53:58.429Z,20.36
2022-09-12T16:56:25.803Z,20.30
2022-09-12T16:58:54.334Z,20.23
2022-09-12T17:01:25.496Z,20.15
2022-09-12T17:03:55.085Z,20.10
2022-09-12T17:06:23.850Z,20.04
2022-09-12T17:08:54.281Z,19.99
2022-09-12T17:11:25.439Z,19.94
2022-09-12T17:14:11.377Z,19.89
2022-09-12T17:16:51.413Z,19.79
2022-09-12T17:19:27.928Z,19.73
2022-09-12T17:21:57.001Z,19.65
2022-09-12T17:24:24.978Z,19.55
2022-09-12T17:26:53.445Z,19.47
2022-09-12T17:29:21.250Z,19.41
2022-09-12T17:31:49.217Z,19.35
2022-09-12T17:34:17.678Z,19.28
2022-09-12T17:36:48.191Z,19.21
2022-09-12T17:39:15.770Z,19.14
2022-09-12T17:41:43.750Z,19.08
2022-09-12T17:44:15.179Z,19.01
2022-09-12T17:46:53.029Z,18.94
2022-09-12T17:49:22.017Z,18.85
2022-09-12T17:51:49.378Z,18.78
2022-09-12T17:54:18.755Z,18.69
2022-09-12T17:56:49.685Z,18.64
2022-09-12T17:59:21.402Z,18.59
2022-09-12T18:02:07.594Z,18.52
2022-09-12T18:04:35.576Z,18.46
2022-09-12T18:07:03.190Z,18.39
2022-09-12T18:09:30.728Z,18.28
2022-09-12T18:11:58.957Z,18.19
2022-09-12T18:14:28.242Z,18.14
2022-09-12T18:16:57.261Z,18.09
2022-09-12T18:19:24.736Z,18.06
2022-09-12T18:21:52.076Z,18.02
2022-09-12T18:24:20.001Z,17.98
2022-09-12T18:26:47.794Z,17.95
2022-09-12T18:29:19.932Z,17.90
2022-09-12T18:31:47.110Z,17.84
2022-09-12T18:34:16.993Z,17.79
2022-09-12T18:36:47.788Z,17.73
2022-09-12T18:39:17.524Z,17.66
2022-09-12T18:41:44.903Z,17.61
2022-09-12T18:44:13.085Z,17.56
2022-09-12T18:46:40.737Z,17.52
2022-09-12T18:49:09.311Z,17.48
2022-09-12T18:51:39.937Z,17.42
2022-09-12T18:54:13.707Z,17.39
2022-09-12T18:56:43.780Z,17.36
2022-09-12T18:59:13.969Z,17.33
2022-09-12T19:01:43.225Z,17.30
2022-09-12T19:04:13.549Z,17.25
2022-09-12T19:06:46.930Z,17.24
2022-09-12T19:09:17.615Z,17.20
2022-09-12T19:11:50.041Z,17.18
2022-09-12T19:14:22.495Z,17.15
2022-09-12T19:16:52.491Z,17.12
2022-09-12T19:19:21.267Z,17.10
2022-09-12T19:21:48.288Z,17.07
2022-09-12T19:24:16.533Z,17.04
2022-09-12T19:26:45.193Z,17.02
2022-09-12T19:29:13.813Z,16.98
2022-09-12T19:31:41.228Z,16.95
2022-09-12T19:34:10.695Z,16.89
2022-09-12T19:36:45.427Z,16.85
2022-09-12T19:39:14.854Z,16.78
2022-09-12T19:41:42.936Z,16.73
2022-09-12T19:44:11.409Z,16.69
2022-09-12T19:46:39.042Z,16.64
2022-09-12T19:49:06.213Z,16.60
2022-09-12T19:51:33.340Z,16.56
2022-09-12T19:54:01.097Z,16.51
2022-09-12T19:56:28.114Z,16.46
2022-09-12T19:58:56.688Z,16.41
2022-09-12T20:01:30.148Z,16.36
2022-09-12T20:03:58.473Z,16.30
2022-09-12T20:06:27.341Z,16.28
2022-09-12T20:08:55.466Z,16.22
2022-09-12T20:11:25.466Z,16.17
2022-09-12T20:13:53.097Z,16.13
2022-09-12T20:16:28.408Z,16.07
2022-09-12T20:19:09.609Z,16.01
2022-09-12T20:21:37.250Z,15.97
2022-09-12T20:24:13.148Z,15.91
2022-09-12T20:26:42.019Z,15.88
2022-09-12T20:29:10.590Z,15.82
2022-09-12T20:31:40.835Z,15.76
2022-09-12T20:34:15.997Z,15.69
2022-09-12T20:36:43.463Z,15.67
2022-09-12T20:39:17.843Z,15.57
2022-09-12T20:41:45.491Z,15.54
2022-09-12T20:44:13.358Z,15.48
2022-09-12T20:46:41.048Z,15.43
2022-09-12T20:49:08.869Z,15.37
2022-09-12T20:51:37.117Z,15.33
2022-09-12T20:54:07.223Z,15.29
2022-09-12T20:56:37.439Z,15.22
2022-09-12T20:59:05.881Z,15.18
2022-09-12T21:01:33.585Z,15.15
2022-09-12T21:04:02.367Z,15.11
2022-09-12T21:06:31.303Z,15.07
2022-09-12T21:09:00.395Z,15.02
2022-09-12T21:11:29.026Z,14.96
2022-09-12T21:13:56.785Z,14.92
2022-09-12T21:16:24.257Z,14.88
2022-09-12T21:18:58.587Z,14.83
2022-09-12T21:21:27.277Z,14.81
2022-09-12T21:24:07.518Z,14.75
2022-09-12T21:26:34.786Z,14.73
2022-09-12T21:29:06.717Z,14.67
2022-09-12T21:31:34.077Z,14.64
2022-09-12T21:34:02.242Z,14.59
2022-09-12T21:36:30.858Z,14.55
2022-09-12T21:38:59.287Z,14.52
2022-09-12T21:41:26.612Z,14.50
2022-09-12T21:43:54.289Z,14.43
2022-09-12T21:46:21.329Z,14.40
2022-09-12T21:48:48.354Z,14.36
2022-09-12T21:51:15.865Z,14.31
2022-09-12T21:53:43.937Z,14.27
2022-09-12T21:56:11.101Z,14.23
2022-09-12T21:58:39.237Z,14.19
2022-09-12T22:01:11.706Z,14.13
2022-09-12T22:03:39.172Z,14.09
2022-09-12T22:06:07.443Z,14.07
2022-09-12T22:08:37.268Z,14.05
2022-09-12T22:11:09.532Z,13.99
2022-09-12T22:13:42.654Z,13.96
2022-09-12T22:16:10.925Z,13.92
2022-09-12T22:18:38.490Z,13.87
2022-09-12T22:21:17.023Z,13.83
2022-09-12T22:24:03.668Z,13.77
2022-09-12T22:26:36.482Z,13.73
2022-09-12T22:29:04.049Z,13.68
2022-09-12T22:31:31.729Z,13.67
2022-09-12T22:33:59.418Z,13.61
2022-09-12T22:36:30.916Z,13.58
2022-09-12T22:38:59.672Z,13.54
2022-09-12T22:41:27.566Z,13.48
2022-09-12T22:43:54.694Z,13.48
2022-09-12T22:46:22.053Z,13.42
2022-09-12T22:48:49.298Z,13.39
2022-09-12T22:51:16.866Z,13.34
2022-09-12T22:53:44.177Z,13.31
2022-09-12T22:56:11.497Z,13.28
2022-09-12T22:58:38.639Z,13.25
2022-09-12T23:01:06.832Z,13.22
2022-09-12T23:03:35.203Z,13.19
2022-09-12T23:06:04.193Z,13.17
2022-09-12T23:08:31.993Z,13.17
2022-09-12T23:11:13.611Z,13.12
2022-09-12T23:13:47.730Z,13.09
2022-09-12T23:16:25.039Z,13.04
2022-09-12T23:18:52.484Z,13.01
2022-09-12T23:21:21.865Z,12.96
2022-09-12T23:23:49.909Z,12.92
2022-09-12T23:26:23.418Z,12.84
2022-09-12T23:29:00.681Z,12.80
2022-09-12T23:31:31.809Z,12.78
2022-09-12T23:34:03.334Z,12.70
2022-09-12T23:36:34.058Z,12.65
2022-09-12T23:39:03.519Z,12.61
2022-09-12T23:41:31.077Z,12.62
2022-09-12T23:43:59.008Z,12.57
2022-09-12T23:46:26.337Z,12.53
2022-09-12T23:48:53.517Z,12.50
2022-09-12T23:51:22.001Z,12.47
2022-09-12T23:53:49.782Z,12.42
2022-09-12T23:56:16.863Z,12.34
2022-09-12T23:58:43.895Z,12.27
